METAR AND TAF INFORMATION
METAR FOR EFHA
ADDS - METARS form results

(2232 UTC 22 March 2019)
Data provider http://aviationweather.gov/metar/data/
 
METAR text: EFHA 222220Z AUTO 18009KT CAVOK 01/M05 Q1021
Conditions at: EFHA (HALLI (FIN-AFB) , FI) observed 2220 UTC 22 March 2019
Temperature: 1.0°C (34°F)
Dewpoint: -5.0°C (23°F) [RH = 64%]
Pressure (altimeter): 30.15 inches Hg (1021.0 mb)
Winds: from the S (180 degrees) at 10 MPH (9 knots; 4.6 m/s)
Visibility: 6 or more miles (10+ km)
Ceiling: ceiling and visibility are OK
Clouds: unknown
Weather: no significant weather observed at this time

METAR text: EFHA 222150Z AUTO 15006KT CAVOK 00/M05 Q1022
Conditions at: EFHA (HALLI (FIN-AFB) , FI) observed 2150 UTC 22 March 2019
Temperature: 0.0°C (32°F)
Dewpoint: -5.0°C (23°F) [RH = 69%]
Pressure (altimeter): 30.18 inches Hg (1022.0 mb)
Winds: from the SSE (150 degrees) at 7 MPH (6 knots; 3.1 m/s)
Visibility: 6 or more miles (10+ km)
Ceiling: ceiling and visibility are OK
Clouds: unknown
Weather: no significant weather observed at this time

Forecast for: EFHA (HALLI (FIN-AFB) , FI)
Text: TAF EFHA 221136Z 2212/2214 31014KT CAVOK
Forecast period: 1200 to 1400 UTC 22 March 2019
Forecast type: FROM: standard forecast or significant change
Winds: from the NW (310 degrees) at 16 MPH (14 knots; 7.2 m/s)
Visibility: 6 or more miles 10+ km)
Ceiling: unknown
Clouds: missing
Weather: NSW  (no significant weather)
Text: PROB30
Forecast period: 1200 to 1400 UTC 22 March 2019
Forecast type: TEMPORARY: The following changes expected for less than half the time period
Winds: from the WNW (300 degrees) at 18 MPH (16 knots; 8.2 m/s)
gusting to 30 MPH (26 knots; 13.4 m/s)
Visibility: missing
Ceiling: unknown
Clouds: missing
Weather: no significant weather forecast for this period

 AIRPORT MAP

 RUNWAY INFORMATION
Runway 08 Runway length 8533 ft Runway width 197 ft
Runway elevation 478 ft Runway displaced threshold 0 ft Runway heading 86
Runway 26 Runway length 8533 ft Runway width 197 ft
Runway elevation 473 ft Runway displaced threshold 0 ft Runway heading 266

 AIRPORT FREQUENCIES
Type APP Name APP Frequency 124.55 MHZ
Type ATIS Name ATIS Frequency 115.2 MHZ
Type TWR Name TWR Frequency 128.9 MHZ

 AIRPORT NEAR NAVIGATION AIDS
Type VOR-DME Name Halli Frequency 115200 KHZ


... ... ... ... ... ...

© Copyright 2017 All Rights Reserved. Virtual NATO is in no way affiliated with NATO or any of the NATO Members

Virtual NATO is a volunteer not for profit group of friends with the common interest in promoting enjoyment and education through the simulation of military operations and procedure through the use of operating standards within several flight simulation platforms.

Powered by Virtual Airlines Manager [v2.6.2] Customized by Virtual NATO